首页
METAR-TAF:

METAR-TAF

机场 :

阿特勞機場

阿特勞, 哈萨克斯坦

纬度: 47-07-19N, 经度: 051-49-17E, 海拔: -22米

当前天气观测

该预报发布于34分钟前的12:30 UTC
风速6节,风向北转东北
温度 -3°C
湿度 80%
气压 1029 hPa
能见度10公里或以上
1500米以下无云,无积雨云

METAR: UATG 191230Z 03003MPS CAVOK M03/M06 Q1029 R32/82//50 NOSIG RMK QFE773/1031

时间: 19:04 (13:04 UTC)

预报

该预报发布于2小时和3分钟前的11:01 UTC
预报有效从19日的 12点(UTC)到 20日的 12点(UTC)
风速12节,风向
能見度: 3100
多云层高于1100英尺
轻雾
成为
从 19日的 14点(UTC)到 19日的 16点(UTC)
风速6节,风向多变
短暂存在
从 19日的 14点(UTC)到 20日的 01点(UTC)
能見度: 0300
层高于100英尺
冻雾

TAF: UATG 191101Z 1912/2012 01006MPS 3100 BR BKN011 TXM01/2010Z TNM09/2004Z BECMG 1914/1916 VRB03MPS TEMPO 1914/2001 0300 FZFG VV001

超过4000个机场的气象观测和天气预报(METAR&TAF报告)。

可查询的气象台以黄色和红色小点在地图上表示。

将鼠标移到小点上方,可查看气象台名称。

然后点击查看天气观测和预报。

如需切换地图:点击带黑十字的绿色按钮放大地图;点击带横线的绿色按钮缩小地图;或者点击绿色箭头查看邻近地区的地图。


METAR-TAF: